Time;durP1;ratioP1;P1;durP2;ratioP2;P2;SDS_P1;SDS_P2;PMS_P1;PMS_P2;Temp;Humidity;BMP_temperature;BMP_pressure;BME280_temperature;BME280_humidity;BME280_pressure;Samples;Min_cycle;Max_cycle;Signal;HPM_P1;HPM_P2
2024/04/02 00:01:19;;;;;;;0.70;0.60;;;10.30;91.00;;;;;;6267318;28;20446;-61
2024/04/02 00:04:31;;;;;;;0.80;0.70;;;10.30;91.50;;;;;;6275954;28;20440;-60
2024/04/02 00:07:42;;;;;;;0.97;0.80;;;10.20;92.00;;;;;;6292041;28;20761;-59
2024/04/02 00:10:47;;;;;;;0.80;0.80;;;10.10;93.10;;;;;;6291811;28;20446;-60
2024/04/02 00:13:49;;;;;;;1.03;0.70;;;9.90;93.90;;;;;;6291439;28;20783;-60
2024/04/02 00:17:02;;;;;;;0.60;0.60;;;9.90;94.40;;;;;;6266266;28;20743;-60
2024/04/02 00:20:05;;;;;;;1.20;1.00;;;9.80;94.80;;;;;;6266784;28;20497;-59
2024/04/02 00:23:15;;;;;;;1.10;1.00;;;9.80;95.30;;;;;;6267402;28;20478;-59
2024/04/02 00:26:22;;;;;;;1.03;0.80;;;9.80;95.60;;;;;;6271834;28;20455;-60
2024/04/02 00:29:26;;;;;;;1.23;1.00;;;9.80;95.80;;;;;;6281012;28;20997;-59
2024/04/02 00:32:29;;;;;;;1.00;0.70;;;9.70;96.00;;;;;;6283433;28;20469;-59
2024/04/02 00:35:37;;;;;;;1.13;0.70;;;9.70;96.30;;;;;;6262986;28;20825;-59
2024/04/02 00:38:48;;;;;;;0.80;0.80;;;9.80;96.30;;;;;;6249144;28;20600;-60
2024/04/02 00:41:51;;;;;;;0.70;0.70;;;9.80;96.40;;;;;;6250248;28;20474;-59
2024/04/02 00:44:55;;;;;;;0.77;0.77;;;9.70;96.60;;;;;;6250139;28;20447;-60
2024/04/02 00:47:57;;;;;;;1.53;0.70;;;9.70;96.80;;;;;;6250168;28;20439;-59
2024/04/02 00:51:02;;;;;;;0.83;0.83;;;9.80;96.70;;;;;;6249310;28;20451;-60
2024/04/02 00:54:09;;;;;;;1.23;0.60;;;9.90;96.70;;;;;;6231045;28;20536;-59
2024/04/02 00:57:18;;;;;;;2.30;0.60;;;9.90;96.60;;;;;;6232867;28;20474;-59
2024/04/02 01:00:20;;;;;;;0.60;0.60;;;10.00;96.00;;;;;;6232644;28;20967;-59
2024/04/02 01:03:28;;;;;;;1.37;0.90;;;10.00;96.00;;;;;;6232281;28;20532;-59
2024/04/02 01:06:31;;;;;;;1.10;0.73;;;10.10;96.00;;;;;;6232633;28;20463;-59
2024/04/02 01:09:46;;;;;;;0.60;0.60;;;10.10;95.60;;;;;;6232722;28;20447;-61
2024/04/02 01:12:49;;;;;;;0.67;0.67;;;10.10;95.50;;;;;;6237940;28;20479;-60
2024/04/02 01:15:53;;;;;;;0.70;0.70;;;10.10;95.50;;;;;;6228588;28;20903;-59
2024/04/02 01:18:56;;;;;;;0.63;0.63;;;10.10;95.60;;;;;;6248181;28;20842;-59
2024/04/02 01:22:03;;;;;;;1.60;0.87;;;10.10;95.60;;;;;;6225353;28;20501;-60
2024/04/02 01:25:32;;;;;;;1.07;0.73;;;9.90;97.00;;;;;;6230699;28;20903;-59
2024/04/02 01:28:38;;;;;;;1.03;0.90;;;9.80;97.20;;;;;;6253617;28;20450;-59
2024/04/02 01:31:41;;;;;;;2.00;1.00;;;9.80;97.80;;;;;;6256115;28;21143;-60
2024/04/02 01:34:56;;;;;;;1.30;1.07;;;9.80;98.00;;;;;;6256811;28;20438;-59
2024/04/02 01:37:59;;;;;;;1.90;0.80;;;9.80;98.10;;;;;;6256275;28;20914;-59
2024/04/02 01:41:10;;;;;;;1.30;1.20;;;9.90;98.10;;;;;;6255596;28;20457;-59
2024/04/02 01:44:14;;;;;;;1.73;1.00;;;9.90;98.10;;;;;;6255815;28;20900;-59
2024/04/02 01:47:28;;;;;;;1.50;1.03;;;10.00;97.60;;;;;;6255934;28;20446;-59
2024/04/02 01:50:31;;;;;;;1.43;0.90;;;10.00;97.60;;;;;;6231773;28;20443;-60
2024/04/02 01:53:44;;;;;;;0.93;0.90;;;10.00;97.60;;;;;;6230977;28;20969;-58
2024/04/02 01:56:50;;;;;;;2.00;1.00;;;10.00;97.70;;;;;;6231400;28;20455;-59
2024/04/02 01:59:55;;;;;;;1.20;1.10;;;10.10;97.60;;;;;;6236375;28;20474;-59
2024/04/02 02:02:58;;;;;;;0.77;0.77;;;10.10;97.40;;;;;;6255517;28;20462;-59
2024/04/02 02:06:03;;;;;;;1.70;1.00;;;10.10;97.30;;;;;;6255354;28;20583;-60
2024/04/02 02:09:07;;;;;;;0.70;0.70;;;10.10;97.20;;;;;;6256168;28;20446;-59
2024/04/02 02:12:15;;;;;;;1.43;1.00;;;10.00;97.30;;;;;;6256091;28;20812;-58
2024/04/02 02:15:18;;;;;;;1.90;0.90;;;10.00;97.30;;;;;;6255702;28;20446;-58
2024/04/02 02:18:26;;;;;;;3.30;0.97;;;10.00;97.30;;;;;;6254593;28;20505;-59
2024/04/02 02:21:30;;;;;;;1.10;1.00;;;9.90;97.80;;;;;;6254887;28;20466;-59
2024/04/02 02:24:36;;;;;;;1.50;1.40;;;9.90;97.90;;;;;;6251357;28;20458;-60
2024/04/02 02:27:41;;;;;;;0.90;0.90;;;9.90;98.20;;;;;;6255263;28;20435;-60
2024/04/02 02:34:03;;;;;;;0.80;0.80;;;9.70;98.90;;;;;;6254948;28;20954;-60
2024/04/02 02:37:08;;;;;;;4.10;1.00;;;9.50;99.20;;;;;;6254489;28;20450;-60
2024/04/02 02:40:11;;;;;;;1.63;0.80;;;9.50;99.40;;;;;;6255231;28;20488;-59
2024/04/02 02:43:15;;;;;;;1.67;1.50;;;9.40;99.50;;;;;;6254825;28;20470;-59
2024/04/02 02:46:18;;;;;;;1.23;1.13;;;9.40;99.50;;;;;;6246685;28;20900;-59
2024/04/02 02:49:30;;;;;;;2.00;1.20;;;9.40;99.50;;;;;;6230463;28;20774;-59
2024/04/02 02:52:32;;;;;;;1.17;1.07;;;9.40;99.60;;;;;;6230191;28;20483;-59
2024/04/02 02:55:44;;;;;;;2.17;1.20;;;9.40;99.50;;;;;;6246150;28;20451;-59
2024/04/02 02:58:56;;;;;;;1.40;1.30;;;9.40;99.50;;;;;;6246352;28;20502;-59
2024/04/02 03:01:59;;;;;;;1.50;1.33;;;9.30;99.90;;;;;;6229861;28;20467;-59
2024/04/02 03:05:11;;;;;;;0.90;0.90;;;9.30;99.90;;;;;;6248317;28;20466;-59
2024/04/02 03:08:14;;;;;;;0.90;0.90;;;9.20;99.80;;;;;;6250185;28;20477;-59
2024/04/02 03:11:29;;;;;;;1.33;1.10;;;9.20;99.70;;;;;;6244047;28;20455;-59
2024/04/02 03:14:47;;;;;;;1.10;0.90;;;9.10;99.80;;;;;;6229525;28;20451;-60
2024/04/02 03:17:50;;;;;;;0.70;0.70;;;9.10;99.80;;;;;;6229874;28;20436;-60
2024/04/02 03:20:59;;;;;;;1.00;1.00;;;9.00;99.90;;;;;;6248004;28;20771;-60
2024/04/02 03:24:02;;;;;;;1.53;1.43;;;9.00;99.90;;;;;;6254212;28;20497;-59
2024/04/02 03:27:06;;;;;;;1.53;1.00;;;9.00;99.90;;;;;;6253070;28;20447;-59
2024/04/02 03:30:24;;;;;;;2.10;1.20;;;9.00;99.90;;;;;;6253643;28;20450;-59
2024/04/02 03:33:28;;;;;;;1.70;1.20;;;8.90;99.90;;;;;;6253309;28;20934;-59
2024/04/02 03:36:32;;;;;;;1.30;1.20;;;8.90;99.90;;;;;;6253965;28;20442;-59
2024/04/02 03:39:37;;;;;;;1.43;1.33;;;9.00;99.90;;;;;;6253774;28;20496;-59
2024/04/02 03:42:42;;;;;;;1.60;1.50;;;8.90;99.90;;;;;;6245305;28;20555;-60
2024/04/02 03:45:51;;;;;;;1.90;1.80;;;8.80;99.90;;;;;;6228702;28;20762;-59
2024/04/02 03:48:55;;;;;;;4.90;4.60;;;8.80;99.90;;;;;;6227851;28;20454;-59
2024/04/02 03:51:59;;;;;;;4.10;3.80;;;8.70;99.90;;;;;;6229335;28;20471;-59
2024/04/02 03:55:02;;;;;;;2.30;2.10;;;8.60;99.90;;;;;;6228813;28;20459;-59
2024/04/02 03:58:16;;;;;;;3.20;3.00;;;8.50;99.90;;;;;;6229507;28;20447;-59
2024/04/02 04:01:26;;;;;;;3.13;2.57;;;8.50;99.90;;;;;;6229042;28;20501;-59
2024/04/02 04:04:31;;;;;;;2.27;2.07;;;8.40;99.90;;;;;;6229756;28;20509;-60
2024/04/02 04:07:44;;;;;;;2.40;1.90;;;8.30;99.90;;;;;;6230464;28;20509;-59
2024/04/02 04:10:48;;;;;;;1.80;1.30;;;8.20;99.90;;;;;;6236927;28;20907;-59
2024/04/02 04:13:52;;;;;;;1.70;1.60;;;8.20;99.90;;;;;;6234830;28;20719;-60
2024/04/02 04:17:00;;;;;;;2.00;1.90;;;8.20;99.90;;;;;;6250313;28;20468;-58
2024/04/02 04:20:07;;;;;;;2.07;1.97;;;8.10;99.90;;;;;;6257775;28;20496;-59
2024/04/02 04:23:10;;;;;;;2.30;2.10;;;8.10;99.90;;;;;;6257814;28;20466;-59
2024/04/02 04:26:22;;;;;;;1.90;1.80;;;8.00;99.90;;;;;;6256680;28;20890;-59
2024/04/02 04:29:25;;;;;;;2.37;2.17;;;8.00;99.90;;;;;;6257893;28;20441;-59
2024/04/02 04:32:31;;;;;;;2.90;2.60;;;8.00;99.90;;;;;;6257785;28;20465;-59
2024/04/02 04:35:35;;;;;;;4.07;2.70;;;7.90;99.90;;;;;;6255917;28;20917;-60
2024/04/02 04:38:39;;;;;;;2.43;2.23;;;7.90;99.90;;;;;;6249156;28;20458;-60
2024/04/02 04:41:44;;;;;;;3.10;2.83;;;7.70;99.90;;;;;;6232637;28;21018;-60
2024/04/02 04:44:46;;;;;;;3.40;3.20;;;7.70;99.90;;;;;;6232887;28;20465;-61
2024/04/02 04:47:53;;;;;;;2.80;2.60;;;7.80;99.90;;;;;;6232677;28;20447;-60
2024/04/02 04:50:59;;;;;;;3.60;3.30;;;7.90;99.90;;;;;;6232365;28;20447;-59
2024/04/02 04:54:05;;;;;;;3.10;2.73;;;8.00;99.90;;;;;;6231561;28;20489;-60
2024/04/02 04:57:07;;;;;;;7.27;3.33;;;8.20;99.90;;;;;;6231859;28;20454;-60
2024/04/02 05:00:13;;;;;;;4.07;2.30;;;8.50;99.90;;;;;;6231880;28;20504;-59
2024/04/02 05:03:32;;;;;;;2.50;1.53;;;9.00;99.90;;;;;;6237810;28;20467;-60
2024/04/02 05:06:38;;;;;;;2.50;1.80;;;9.30;99.90;;;;;;6231686;28;20456;-60
2024/04/02 05:09:41;;;;;;;2.70;1.63;;;9.50;99.90;;;;;;6231941;28;20450;-60
2024/04/02 05:12:53;;;;;;;2.10;1.90;;;9.70;99.90;;;;;;6238462;28;21012;-60
2024/04/02 05:15:56;;;;;;;1.60;1.50;;;9.90;99.90;;;;;;6256044;28;20454;-60
2024/04/02 05:19:06;;;;;;;1.67;1.50;;;10.50;99.90;;;;;;6247085;28;20487;-60
2024/04/02 05:22:09;;;;;;;2.67;1.80;;;11.00;99.90;;;;;;6232298;28;20471;-60
2024/04/02 05:25:12;;;;;;;3.70;1.70;;;11.30;99.90;;;;;;6231048;28;20471;-60
2024/04/02 05:28:19;;;;;;;4.63;1.20;;;11.60;99.20;;;;;;6231214;28;20766;-60
2024/04/02 05:31:24;;;;;;;1.53;1.40;;;12.00;98.40;;;;;;6231305;28;20485;-60
2024/04/02 05:34:38;;;;;;;3.33;2.07;;;12.30;97.40;;;;;;6247610;28;20446;-59
2024/04/02 05:37:40;;;;;;;1.57;1.47;;;12.90;96.30;;;;;;6255972;28;20450;-60
2024/04/02 05:40:53;;;;;;;1.23;1.13;;;13.90;95.00;;;;;;6255755;28;20950;-60
2024/04/02 05:43:59;;;;;;;1.60;1.50;;;15.10;92.00;;;;;;6256554;28;20458;-60
2024/04/02 05:47:10;;;;;;;1.53;0.90;;;15.60;90.30;;;;;;6254742;28;20472;-60
2024/04/02 05:50:17;;;;;;;1.83;1.30;;;16.60;86.70;;;;;;6254694;28;20512;-60
2024/04/02 05:53:23;;;;;;;1.53;1.20;;;17.70;82.30;;;;;;6237866;28;20489;-60
2024/04/02 05:56:26;;;;;;;3.03;1.50;;;18.60;77.00;;;;;;6229361;28;20447;-59
2024/04/02 05:59:36;;;;;;;2.80;1.53;;;18.60;74.50;;;;;;6220994;28;20485;-61
2024/04/02 06:02:48;;;;;;;1.80;1.70;;;18.20;73.70;;;;;;6229492;28;20839;-60
2024/04/02 06:05:55;;;;;;;1.77;1.67;;;17.30;74.60;;;;;;6230248;28;20469;-60
2024/04/02 06:09:02;;;;;;;4.67;1.57;;;16.50;77.60;;;;;;6237988;28;20742;-61
2024/04/02 06:12:09;;;;;;;3.37;1.73;;;16.50;79.40;;;;;;6253721;28;20465;-59
2024/04/02 06:15:17;;;;;;;4.60;2.97;;;17.90;78.90;;;;;;6253101;28;20450;-60
2024/04/02 06:18:23;;;;;;;2.13;1.93;;;20.60;72.00;;;;;;6252917;28;20683;-60
2024/04/02 06:21:30;;;;;;;4.30;1.70;;;23.60;62.40;;;;;;6253794;28;20227;-60
2024/04/02 06:24:34;;;;;;;4.30;2.00;;;24.40;56.80;;;;;;6252857;28;20210;-60
2024/04/02 06:27:37;;;;;;;2.70;2.50;;;23.90;55.90;;;;;;6253516;28;20214;-60
2024/04/02 06:30:46;;;;;;;3.20;2.43;;;23.60;57.50;;;;;;6245891;28;20200;-59
2024/04/02 06:33:47;;;;;;;3.60;2.50;;;24.00;55.30;;;;;;6229476;28;20225;-60
2024/04/02 06:36:51;;;;;;;3.27;2.97;;;23.00;55.90;;;;;;6229730;28;20662;-59
2024/04/02 06:39:53;;;;;;;2.90;2.70;;;21.00;59.50;;;;;;6229720;28;20614;-61
2024/04/02 06:42:55;;;;;;;3.60;2.97;;;19.30;63.50;;;;;;6230096;28;20694;-60
2024/04/02 06:45:59;;;;;;;4.23;2.53;;;18.60;66.50;;;;;;6229644;28;20204;-60
2024/04/02 06:49:00;;;;;;;8.03;2.50;;;17.90;68.40;;;;;;6229030;28;20266;-60
2024/04/02 06:52:04;;;;;;;7.17;3.37;;;19.50;66.80;;;;;;6229216;28;20222;-60
2024/04/02 06:55:06;;;;;;;4.13;2.10;;;20.70;63.50;;;;;;6229206;28;20824;-60
2024/04/02 06:58:08;;;;;;;2.63;2.43;;;22.10;58.80;;;;;;6229280;28;20200;-62
2024/04/02 07:01:10;;;;;;;4.03;2.30;;;23.40;56.70;;;;;;6229894;28;20304;-60
2024/04/02 07:04:12;;;;;;;2.37;1.53;;;24.30;55.10;;;;;;6242218;28;20215;-61
2024/04/02 07:07:15;;;;;;;2.30;1.57;;;24.30;54.80;;;;;;6239465;28;20226;-61
2024/04/02 07:10:17;;;;;;;2.43;1.37;;;24.40;52.20;;;;;;6252374;28;20520;-60
2024/04/02 07:13:18;;;;;;;3.77;1.70;;;24.40;51.80;;;;;;6245510;28;20270;-61
2024/04/02 07:16:20;;;;;;;3.20;1.47;;;25.50;50.70;;;;;;6244991;28;20223;-61
2024/04/02 07:19:24;;;;;;;1.93;1.83;;;28.00;47.60;;;;;;6200803;28;20283;-63
2024/04/02 07:22:26;;;;;;;2.40;1.73;;;29.50;43.80;;;;;;6235260;28;20234;-64
2024/04/02 07:25:29;;;;;;;2.23;2.03;;;28.40;43.40;;;;;;6216708;28;20200;-63
2024/04/02 07:28:30;;;;;;;3.33;2.30;;;27.90;44.30;;;;;;6245419;28;20207;-63
2024/04/02 07:31:32;;;;;;;3.70;1.80;;;28.80;43.20;;;;;;6238197;28;20233;-64
2024/04/02 07:34:34;;;;;;;3.15;1.40;;;29.80;42.00;;;;;;6233077;28;20261;-63
2024/04/02 07:37:37;;;;;;;4.47;1.70;;;32.80;39.10;;;;;;6239536;28;20619;-63
2024/04/02 07:40:39;;;;;;;5.95;2.28;;;34.50;35.20;;;;;;6230888;28;20280;-65
2024/04/02 07:43:41;;;;;;;3.03;1.67;;;33.50;33.80;;;;;;6237080;28;20248;-65
2024/04/02 07:46:49;;;;;;;4.47;2.20;;;31.30;34.20;;;;;;6235748;28;20226;-66
2024/04/02 07:50:03;;;;;;;6.50;1.43;;;29.20;37.20;;;;;;6245150;28;20200;-63
2024/04/02 07:53:18;;;;;;;4.03;1.30;;;28.00;38.50;;;;;;6239969;28;20224;-64
2024/04/02 07:56:21;;;;;;;1.20;0.77;;;27.40;39.10;;;;;;6238390;28;20199;-64
2024/04/02 07:59:25;;;;;;;2.60;0.67;;;27.20;38.00;;;;;;6233331;28;20491;-63
2024/04/02 08:02:28;;;;;;;1.70;0.70;;;27.10;37.50;;;;;;6248261;28;20236;-64
2024/04/02 08:05:34;;;;;;;1.20;0.80;;;26.50;38.30;;;;;;6234863;28;20486;-62
2024/04/02 08:08:52;;;;;;;1.10;0.83;;;25.80;37.70;;;;;;6233731;28;20204;-63
2024/04/02 08:11:54;;;;;;;1.10;0.70;;;25.10;38.80;;;;;;6233454;28;20220;-63
2024/04/02 08:15:00;;;;;;;1.03;0.70;;;25.00;38.20;;;;;;6228610;28;20614;-62
2024/04/02 08:18:06;;;;;;;3.33;1.00;;;26.10;36.80;;;;;;6232534;28;20250;-61
2024/04/02 08:21:08;;;;;;;0.70;0.40;;;29.60;33.20;;;;;;6243331;28;20224;-63
2024/04/02 08:24:20;;;;;;;1.17;0.28;;;32.70;29.00;;;;;;6256340;28;20634;-63
2024/04/02 08:27:22;;;;;;;2.70;1.33;;;33.40;27.40;;;;;;6264016;28;20198;-63
2024/04/02 08:30:29;;;;;;;1.10;0.65;;;32.90;26.70;;;;;;6274998;28;20195;-64
2024/04/02 08:33:33;;;;;;;0.70;0.30;;;34.70;25.70;;;;;;6281350;28;20226;-63
2024/04/02 08:36:39;;;;;;;0.70;0.30;;;35.60;24.10;;;;;;6275932;28;20643;-63
2024/04/02 08:39:54;;;;;;;1.98;1.42;;;36.40;23.20;;;;;;6248496;28;20275;-64
2024/04/02 08:43:06;;;;;;;2.08;1.27;;;36.70;28.30;;;;;;6238583;28;20289;-63
2024/04/02 08:46:12;;;;;;;1.70;0.93;;;37.60;27.70;;;;;;6233474;28;20257;-62
2024/04/02 08:49:19;;;;;;;1.15;0.70;;;38.70;26.20;;;;;;6232897;28;20780;-63
2024/04/02 08:52:24;;;;;;;1.92;0.93;;;39.20;25.20;;;;;;6248965;28;20220;-62
2024/04/02 08:55:34;;;;;;;1.15;0.60;;;38.60;24.30;;;;;;6247016;28;20647;-63
2024/04/02 08:58:40;;;;;;;2.60;1.02;;;38.40;24.20;;;;;;6253470;28;20199;-63
2024/04/02 09:01:44;;;;;;;1.02;0.77;;;38.80;24.10;;;;;;6257799;28;20361;-63
2024/04/02 09:04:57;;;;;;;2.45;0.63;;;39.80;23.30;;;;;;6248771;28;20631;-63
2024/04/02 09:07:59;;;;;;;1.55;0.38;;;41.00;22.10;;;;;;6243278;28;20295;-63
2024/04/02 09:11:18;;;;;;;0.60;0.30;;;39.90;19.00;;;;;;6213438;28;20517;-62
2024/04/02 09:14:24;;;;;;;3.25;0.40;;;40.20;18.40;;;;;;6231416;28;20525;-63
2024/04/02 09:17:30;;;;;;;0.80;0.40;;;38.80;18.40;;;;;;6231931;28;20212;-64
2024/04/02 09:20:36;;;;;;;0.70;0.35;;;36.60;19.90;;;;;;6253433;28;20235;-62
2024/04/02 09:23:49;;;;;;;0.70;0.40;;;34.60;21.50;;;;;;6254739;28;20492;-62
2024/04/02 09:27:09;;;;;;;1.63;0.40;;;33.10;22.10;;;;;;6247082;28;20207;-63
2024/04/02 09:30:19;;;;;;;3.00;0.40;;;32.80;23.70;;;;;;6231269;28;20200;-63
2024/04/02 09:33:23;;;;;;;1.00;0.30;;;36.80;21.10;;;;;;6230918;28;20224;-64
2024/04/02 09:36:44;;;;;;;0.80;0.47;;;40.20;19.10;;;;;;6230858;28;20218;-64
2024/04/02 09:39:49;;;;;;;3.72;1.10;;;42.50;17.90;;;;;;6232302;28;20208;-62
2024/04/02 09:43:00;;;;;;;0.90;0.60;;;43.90;17.00;;;;;;6238824;28;20574;-63
2024/04/02 09:46:05;;;;;;;0.85;0.40;;;46.40;15.30;;;;;;6252172;28;20263;-63
2024/04/02 09:49:12;;;;;;;0.63;0.30;;;47.50;13.80;;;;;;6253148;28;20466;-66
2024/04/02 09:52:15;;;;;;;1.45;0.60;;;48.30;12.50;;;;;;6251227;28;20255;-63
2024/04/02 09:55:31;;;;;;;3.38;0.30;;;50.00;12.60;;;;;;6243045;28;20222;-63
2024/04/02 09:58:49;;;;;;;1.00;0.40;;;51.00;10.50;;;;;;6255544;28;20222;-63
2024/04/02 10:01:55;;;;;;;1.88;0.68;;;46.90;10.70;;;;;;6254590;28;20546;-64
2024/04/02 10:05:00;;;;;;;0.88;0.30;;;46.80;12.10;;;;;;6238868;28;20208;-64
2024/04/02 10:08:13;;;;;;;0.80;0.47;;;44.60;12.20;;;;;;6224959;28;20211;-64
2024/04/02 10:11:21;;;;;;;3.53;0.50;;;42.00;13.30;;;;;;6213127;28;20204;-64
2024/04/02 10:14:39;;;;;;;1.67;0.80;;;39.60;14.60;;;;;;6233959;28;20207;-64
2024/04/02 10:17:43;;;;;;;1.17;0.60;;;37.90;15.70;;;;;;6253106;28;20574;-64
2024/04/02 10:21:01;;;;;;;0.80;0.32;;;36.20;16.60;;;;;;6250159;28;20219;-64
2024/04/02 10:24:07;;;;;;;1.15;0.40;;;35.60;17.00;;;;;;6230384;28;20363;-64
2024/04/02 10:27:21;;;;;;;0.80;0.43;;;33.50;18.60;;;;;;6240553;28;20210;-64
2024/04/02 10:30:46;;;;;;;1.70;0.40;;;32.20;19.20;;;;;;6279625;28;20256;-63
2024/04/02 10:33:50;;;;;;;0.90;0.30;;;33.10;19.40;;;;;;6245086;28;20239;-64
2024/04/02 10:36:54;;;;;;;0.80;0.50;;;34.50;18.70;;;;;;6229812;28;20204;-64
2024/04/02 10:39:58;;;;;;;1.63;0.40;;;37.70;16.90;;;;;;6229293;28;20620;-64
2024/04/02 10:43:07;;;;;;;0.63;0.40;;;39.00;15.60;;;;;;6229321;28;20224;-63
2024/04/02 10:46:25;;;;;;;0.80;0.40;;;38.80;15.70;;;;;;6246022;28;20214;-64
2024/04/02 10:49:30;;;;;;;0.68;0.47;;;36.20;17.20;;;;;;6249595;28;20211;-64
2024/04/02 10:52:39;;;;;;;0.70;0.40;;;34.70;17.90;;;;;;6253736;28;20223;-64
2024/04/02 10:55:44;;;;;;;0.60;0.30;;;32.40;19.60;;;;;;6253511;28;20217;-64
2024/04/02 10:58:48;;;;;;;0.90;0.50;;;30.60;20.40;;;;;;6253686;28;20618;-63
2024/04/02 11:01:57;;;;;;;0.70;0.50;;;32.20;21.80;;;;;;6253412;28;20238;-64
2024/04/02 11:05:04;;;;;;;1.10;0.40;;;34.30;19.30;;;;;;6228891;28;20617;-64
2024/04/02 11:08:10;;;;;;;1.33;0.50;;;34.60;19.00;;;;;;6229448;28;20203;-64
2024/04/02 11:11:20;;;;;;;0.88;0.38;;;33.50;18.80;;;;;;6239611;28;20196;-63
2024/04/02 11:14:27;;;;;;;1.00;0.40;;;32.50;19.70;;;;;;6254220;28;20207;-64
2024/04/02 11:17:38;;;;;;;0.70;0.30;;;32.30;20.30;;;;;;6278156;28;20202;-63
2024/04/02 11:20:41;;;;;;;1.17;0.38;;;34.10;19.10;;;;;;6239567;28;20236;-64
2024/04/02 11:27:06;;;;;;;2.13;0.40;;;34.80;19.00;;;;;;6213164;28;20203;-64
2024/04/02 11:30:20;;;;;;;0.90;0.50;;;36.00;17.40;;;;;;6233148;28;20677;-64
2024/04/02 11:33:30;;;;;;;0.50;0.20;;;35.50;17.10;;;;;;6205172;28;20236;-64
2024/04/02 11:36:34;;;;;;;1.67;0.40;;;34.60;18.20;;;;;;6204735;28;20597;-63
2024/04/02 11:39:37;;;;;;;1.35;0.50;;;34.50;17.60;;;;;;6204711;28;20231;-64
2024/04/02 11:42:43;;;;;;;0.60;0.30;;;33.90;18.00;;;;;;6204368;28;20509;-64
2024/04/02 11:45:46;;;;;;;1.80;0.50;;;33.10;18.40;;;;;;6225593;28;20202;-64
2024/04/02 11:49:03;;;;;;;1.33;0.30;;;32.40;18.70;;;;;;6229689;28;20207;-65
2024/04/02 11:52:07;;;;;;;1.73;0.50;;;31.40;18.50;;;;;;6229633;28;20238;-63
2024/04/02 11:55:11;;;;;;;0.70;0.40;;;30.50;19.50;;;;;;6228511;28;20208;-64
2024/04/02 12:01:45;;;;;;;2.40;0.63;;;29.40;20.50;;;;;;6244806;28;20648;-64
2024/04/02 12:04:52;;;;;;;0.70;0.43;;;29.30;21.00;;;;;;6244868;28;20206;-64
2024/04/02 12:08:03;;;;;;;1.73;0.50;;;29.20;21.20;;;;;;6228393;28;20220;-64
2024/04/02 12:11:07;;;;;;;1.00;0.30;;;28.90;22.30;;;;;;6228187;28;20215;-64
2024/04/02 12:14:09;;;;;;;0.60;0.30;;;28.50;21.70;;;;;;6227661;28;20211;-64
2024/04/02 12:17:14;;;;;;;0.90;0.40;;;28.10;22.00;;;;;;6205658;28;20214;-63
2024/04/02 12:20:23;;;;;;;0.80;0.40;;;27.50;22.80;;;;;;6224814;28;20236;-64
2024/04/02 12:23:35;;;;;;;1.83;0.70;;;27.20;23.80;;;;;;6228243;28;20230;-64
2024/04/02 12:26:38;;;;;;;1.43;0.43;;;26.80;23.60;;;;;;6235779;28;20212;-64
2024/04/02 12:29:44;;;;;;;1.10;0.57;;;26.60;23.50;;;;;;6281434;28;20221;-64
2024/04/02 12:32:50;;;;;;;0.57;0.20;;;26.20;23.80;;;;;;6281597;28;20244;-63
2024/04/02 12:36:05;;;;;;;1.27;0.47;;;25.60;23.50;;;;;;6282527;28;20186;-63
2024/04/02 12:39:08;;;;;;;0.70;0.30;;;25.20;24.20;;;;;;6279703;28;20207;-63
2024/04/02 12:42:15;;;;;;;1.27;0.40;;;24.60;24.10;;;;;;6237135;28;20238;-63
2024/04/02 12:45:19;;;;;;;1.07;0.23;;;24.20;24.90;;;;;;6232295;28;20541;-63
2024/04/02 12:48:34;;;;;;;0.60;0.37;;;23.80;24.80;;;;;;6233423;28;20240;-63
2024/04/02 12:51:37;;;;;;;0.70;0.40;;;23.30;25.00;;;;;;6232603;28;20220;-62
2024/04/02 12:54:41;;;;;;;0.73;0.40;;;23.20;25.40;;;;;;6249043;28;20544;-63
2024/04/02 12:57:46;;;;;;;0.67;0.43;;;22.90;25.60;;;;;;6248803;28;20210;-63
2024/04/02 13:00:49;;;;;;;0.77;0.30;;;22.70;26.00;;;;;;6231910;28;20208;-63
2024/04/02 13:03:52;;;;;;;1.03;0.30;;;22.80;26.00;;;;;;6243631;28;20242;-63
2024/04/02 13:07:01;;;;;;;0.80;0.50;;;22.60;26.30;;;;;;6256805;28;20199;-63
2024/04/02 13:10:04;;;;;;;1.10;0.30;;;22.10;26.70;;;;;;6240470;28;20621;-63
2024/04/02 13:13:12;;;;;;;0.60;0.30;;;21.40;27.90;;;;;;6255425;28;20261;-64
2024/04/02 13:16:42;;;;;;;0.90;0.40;;;20.80;28.90;;;;;;6242002;28;20208;-63
2024/04/02 13:19:45;;;;;;;1.20;0.90;;;20.60;29.50;;;;;;6232005;28;20254;-62
2024/04/02 13:22:57;;;;;;;0.73;0.40;;;20.30;30.40;;;;;;6236376;28;20232;-63
2024/04/02 13:26:07;;;;;;;1.17;0.30;;;20.20;30.90;;;;;;6232858;28;20223;-63
2024/04/02 13:29:13;;;;;;;0.93;0.50;;;20.10;30.90;;;;;;6276735;28;20344;-63
2024/04/02 13:32:17;;;;;;;0.80;0.40;;;20.00;31.10;;;;;;6281302;28;20580;-63
2024/04/02 13:35:20;;;;;;;2.03;0.50;;;19.80;31.40;;;;;;6280555;28;20206;-64
2024/04/02 13:38:33;;;;;;;3.33;0.63;;;19.60;31.60;;;;;;6235485;28;20212;-63
2024/04/02 13:41:36;;;;;;;13.37;11.17;;;19.60;32.40;;;;;;6230951;28;20239;-63
2024/04/02 13:44:43;;;;;;;0.70;0.27;;;19.30;32.20;;;;;;6230911;28;20219;-65
2024/04/02 13:47:47;;;;;;;2.13;1.90;;;19.00;31.80;;;;;;6230496;28;20204;-63
2024/04/02 13:51:06;;;;;;;3.40;0.50;;;19.00;33.00;;;;;;6245752;28;20215;-63
2024/04/02 13:54:13;;;;;;;1.07;0.40;;;18.90;33.60;;;;;;6255156;28;20205;-64
2024/04/02 13:57:20;;;;;;;5.90;5.30;;;18.80;33.80;;;;;;6250345;28;20207;-61
2024/04/02 14:00:23;;;;;;;0.70;0.30;;;18.80;33.80;;;;;;6250374;28;20245;-61
2024/04/02 14:03:36;;;;;;;1.97;0.60;;;18.80;34.00;;;;;;6247381;28;20622;-60
2024/04/02 14:06:49;;;;;;;2.50;0.67;;;19.00;33.60;;;;;;6246953;28;20205;-61
2024/04/02 14:09:58;;;;;;;1.07;0.60;;;19.10;33.50;;;;;;6245867;28;20510;-63
2024/04/02 14:13:04;;;;;;;1.67;1.07;;;19.30;34.10;;;;;;6230207;28;20232;-63
2024/04/02 14:16:14;;;;;;;2.53;0.60;;;19.60;34.90;;;;;;6231376;28;20219;-61
2024/04/02 14:19:18;;;;;;;1.13;0.73;;;19.90;32.80;;;;;;6239767;28;20236;-60
2024/04/02 14:22:27;;;;;;;1.70;0.40;;;20.10;31.80;;;;;;6246875;28;20252;-61
2024/04/02 14:25:32;;;;;;;1.90;0.47;;;20.20;31.50;;;;;;6244234;28;20209;-61
2024/04/02 14:28:44;;;;;;;2.83;0.80;;;20.10;33.00;;;;;;6264993;28;20207;-62
2024/04/02 14:31:53;;;;;;;0.80;0.63;;;19.50;35.40;;;;;;6247231;28;20552;-62
2024/04/02 14:34:55;;;;;;;1.43;0.43;;;18.70;37.10;;;;;;6246165;28;20536;-61
2024/04/02 14:37:58;;;;;;;0.73;0.43;;;18.70;37.20;;;;;;6230014;28;20214;-61
2024/04/02 14:41:08;;;;;;;2.07;0.87;;;18.20;38.10;;;;;;6230280;28;20208;-57
2024/04/02 14:44:09;;;;;;;1.20;0.67;;;18.20;39.20;;;;;;6229922;28;20215;-58
2024/04/02 14:47:12;;;;;;;1.00;0.60;;;17.90;39.80;;;;;;6246928;28;20261;-57
2024/04/02 14:50:16;;;;;;;0.60;0.40;;;17.70;40.50;;;;;;6254042;28;20894;-59
2024/04/02 14:53:19;;;;;;;0.60;0.47;;;17.10;41.40;;;;;;6254309;28;20462;-60
2024/04/02 14:56:25;;;;;;;1.50;0.43;;;16.90;42.50;;;;;;6255644;28;20460;-57
2024/04/02 14:59:28;;;;;;;0.67;0.50;;;16.60;43.40;;;;;;6253317;28;20458;-57
2024/04/02 15:02:34;;;;;;;0.90;0.50;;;16.50;43.80;;;;;;6254815;28;20494;-60
2024/04/02 15:05:37;;;;;;;1.27;0.50;;;16.50;44.40;;;;;;6254521;28;20474;-58
2024/04/02 15:08:42;;;;;;;1.80;1.10;;;16.30;45.40;;;;;;6255522;28;20883;-58
2024/04/02 15:11:57;;;;;;;0.80;0.80;;;15.90;46.40;;;;;;6254117;28;21120;-60
2024/04/02 15:15:02;;;;;;;2.60;0.80;;;15.80;47.60;;;;;;6243989;28;20927;-58
2024/04/02 15:18:08;;;;;;;0.60;0.57;;;15.80;47.30;;;;;;6229779;28;20498;-58
2024/04/02 15:21:19;;;;;;;2.80;0.90;;;15.70;48.00;;;;;;6213326;28;20451;-59
2024/04/02 15:24:25;;;;;;;1.87;1.13;;;15.70;49.10;;;;;;6228722;28;20467;-60
2024/04/02 15:27:48;;;;;;;2.13;0.77;;;15.70;49.60;;;;;;6247030;28;20441;-58
2024/04/02 15:30:50;;;;;;;0.67;0.67;;;15.50;49.70;;;;;;6252548;28;20451;-60
2024/04/02 15:33:54;;;;;;;0.67;0.60;;;15.50;50.30;;;;;;6230377;28;20467;-56
2024/04/02 15:36:58;;;;;;;0.83;0.50;;;15.60;51.00;;;;;;6227496;28;20903;-57
2024/04/02 15:40:04;;;;;;;0.50;0.50;;;15.50;50.30;;;;;;6252816;28;20446;-60
2024/04/02 15:43:20;;;;;;;1.10;0.80;;;15.30;51.20;;;;;;6251317;28;20482;-56
2024/04/02 15:46:29;;;;;;;1.30;0.80;;;15.10;51.50;;;;;;6228858;28;20505;-59
2024/04/02 15:49:36;;;;;;;1.00;0.60;;;14.80;52.40;;;;;;6197383;28;20520;-55
2024/04/02 15:52:39;;;;;;;0.80;0.50;;;14.80;52.90;;;;;;6232058;28;20474;-58
2024/04/02 15:55:50;;;;;;;1.10;0.80;;;14.60;53.40;;;;;;6229455;28;20455;-58
2024/04/02 15:58:56;;;;;;;1.13;0.70;;;14.40;53.70;;;;;;6229065;28;20455;-58
2024/04/02 16:02:09;;;;;;;0.73;0.70;;;14.20;54.10;;;;;;6230943;28;20482;-58
2024/04/02 16:05:11;;;;;;;1.00;0.90;;;14.20;54.50;;;;;;6233848;28;20504;-56
2024/04/02 16:08:15;;;;;;;2.60;0.80;;;14.20;55.00;;;;;;6237109;28;20453;-59
2024/04/02 16:11:19;;;;;;;1.13;1.03;;;14.20;55.20;;;;;;6234183;28;20450;-59
2024/04/02 16:14:41;;;;;;;1.97;0.70;;;14.20;55.80;;;;;;6232889;28;20941;-60
2024/04/02 16:17:42;;;;;;;1.00;1.00;;;14.20;56.00;;;;;;6240064;28;20467;-60
2024/04/02 16:20:46;;;;;;;1.00;0.83;;;14.00;56.30;;;;;;6257666;28;20452;-60
2024/04/02 16:23:49;;;;;;;2.30;1.07;;;14.10;55.30;;;;;;6252011;28;20795;-59
2024/04/02 16:26:56;;;;;;;0.93;0.67;;;13.80;55.40;;;;;;6246092;28;20460;-57